Weather at Lumbarda Seaplane Terminal [CLOSED]

Public forecast

Using degrees Celsius for public forecast. Weather courtesy of forecast.io.

Closest aviation weather report (METAR) to Lumbarda Seaplane Terminal

Report is more than 6 hours old.

Closest report is Brač Airport, 30.6 nm (56.7 km) NW.

2024/05/18 15:30 (retrieved 2 days ago)

LDSB 181530Z 17007KT 9999 FEW035 17/15 Q1015

Closest aviation forecast (TAF) to Lumbarda Seaplane Terminal

Forecast is more than 12 hours old.

Closest forecast is Brač Airport, 30.6 nm (56.7 km) NW.

2024/05/18 16:03 Ammendment (retrieved 2 days ago)

TAF AMD TAF AMD LDSB 181600Z 1816/1912 CNL